CPX974 Details

Departure: Schiphol International Airport (EHAM)
Arrival: Seattle-Tacoma International Airport (KSEA) at N/A
Notes: SEASONAL FLIGHT | PERISHABLE CARGO


Current Weather Information
EHAM 191555Z 25016KT 9999 FEW030 20/12 Q1015 NOSIG
KSEA 191553Z 14006KT 10SM FEW014 BKN028 OVC037 17/12 A3001 RMK AO2 SLP167 T01720122